createdAt,value
2019-05-14T00:03:22.068Z,7.83
2019-05-14T00:05:56.169Z,4.03
2019-05-14T00:08:35.119Z,11.95
2019-05-14T00:11:07.922Z,11.40
2019-05-14T00:13:51.943Z,14.65
2019-05-14T00:16:22.262Z,6.12
2019-05-14T00:18:51.844Z,8.98
2019-05-14T00:21:25.815Z,9.90
2019-05-14T00:27:03.475Z,9.28
2019-05-14T00:42:01.752Z,3.80
2019-05-14T00:45:14.047Z,8.15
2019-05-14T00:48:18.763Z,9.08
2019-05-14T00:50:47.727Z,9.45
2019-05-14T00:53:21.582Z,4.90
2019-05-14T00:56:06.587Z,8.23
2019-05-14T00:58:36.353Z,11.60
2019-05-14T01:01:06.509Z,12.07
2019-05-14T01:03:43.189Z,10.90
2019-05-14T01:06:31.409Z,12.03
2019-05-14T01:08:51.882Z,6.28
2019-05-14T01:11:23.821Z,6.67
2019-05-14T01:14:06.238Z,6.65
2019-05-14T01:20:02.774Z,8.78
2019-05-14T01:26:13.947Z,8.83
2019-05-14T01:41:58.515Z,4.80
2019-05-14T01:44:31.806Z,7.75
2019-05-14T01:47:05.611Z,6.75
2019-05-14T01:52:53.859Z,4.67
2019-05-14T01:55:32.299Z,10.23
2019-05-14T01:58:11.436Z,9.73
2019-05-14T02:00:52.333Z,6.35
2019-05-14T02:06:25.741Z,5.20
2019-05-14T02:09:11.613Z,7.50
2019-05-14T02:11:35.221Z,5.40
2019-05-14T02:14:04.940Z,9.93
2019-05-14T02:16:34.248Z,4.45
2019-05-14T02:19:04.851Z,7.30
2019-05-14T02:21:34.514Z,5.58
2019-05-14T02:24:05.088Z,7.50
2019-05-14T02:26:42.699Z,4.65
2019-05-14T02:29:55.451Z,2.62
2019-05-14T02:32:25.808Z,6.67
2019-05-14T02:34:58.926Z,7.70
2019-05-14T02:37:30.084Z,5.50
2019-05-14T02:40:00.694Z,6.90
2019-05-14T02:42:30.830Z,3.33
2019-05-14T02:45:03.865Z,6.42
2019-05-14T02:47:33.701Z,5.62
2019-05-14T02:50:05.032Z,3.20
2019-05-14T02:52:34.742Z,5.53
2019-05-14T02:55:04.632Z,3.95
2019-05-14T02:57:33.939Z,5.20
2019-05-14T03:00:03.585Z,4.95
2019-05-14T03:02:33.845Z,5.28
2019-05-14T03:05:05.130Z,3.25
2019-05-14T03:07:50.078Z,5.42
2019-05-14T03:11:09.332Z,3.20
2019-05-14T03:13:15.338Z,3.02
2019-05-14T03:16:18.693Z,5.50
2019-05-14T03:18:32.970Z,2.52
2019-05-14T03:21:02.336Z,3.75
2019-05-14T03:23:34.275Z,2.33
2019-05-14T03:26:03.517Z,3.33
2019-05-14T03:28:33.914Z,3.45
2019-05-14T03:31:05.765Z,2.35
2019-05-14T03:33:35.023Z,2.80
2019-05-14T03:36:09.242Z,3.12
2019-05-14T03:38:39.697Z,2.98
2019-05-14T03:41:14.041Z,4.53
2019-05-14T03:44:32.081Z,3.58
2019-05-14T03:47:19.660Z,7.50
2019-05-14T03:50:09.873Z,2.77
2019-05-14T03:58:44.846Z,2.75
2019-05-14T04:10:52.722Z,3.90
2019-05-14T04:13:19.794Z,3.27
2019-05-14T04:15:51.740Z,3.58
2019-05-14T04:18:24.054Z,3.45
2019-05-14T04:21:33.707Z,3.85
2019-05-14T04:24:09.499Z,2.30
2019-05-14T04:26:56.450Z,2.75
2019-05-14T04:29:13.719Z,2.60
2019-05-14T04:31:44.708Z,3.22
2019-05-14T04:34:15.391Z,4.40
2019-05-14T04:36:45.380Z,4.97
2019-05-14T04:39:14.305Z,2.20
2019-05-14T04:41:44.959Z,5.37
2019-05-14T04:44:14.373Z,5.53
2019-05-14T04:46:43.227Z,3.55
2019-05-14T04:49:12.079Z,4.10
2019-05-14T04:51:41.784Z,6.72
2019-05-14T04:54:13.078Z,4.60
2019-05-14T04:56:42.828Z,2.02
2019-05-14T04:59:19.018Z,3.08
2019-05-14T05:04:22.629Z,3.70
2019-05-14T05:10:25.605Z,4.10
2019-05-14T05:12:41.578Z,2.20
2019-05-14T05:15:09.333Z,3.15
2019-05-14T05:17:47.058Z,3.05
2019-05-14T05:20:10.263Z,3.40
2019-05-14T05:22:39.913Z,2.30
2019-05-14T05:25:10.979Z,6.30
2019-05-14T05:27:41.049Z,4.25
2019-05-14T05:30:14.845Z,4.62
2019-05-14T05:32:45.351Z,3.47
2019-05-14T05:35:18.467Z,4.75
2019-05-14T05:37:46.014Z,5.10
2019-05-14T05:40:15.784Z,3.60
2019-05-14T05:42:44.585Z,7.65
2019-05-14T05:45:15.233Z,1.87
2019-05-14T05:47:55.245Z,4.00
2019-05-14T05:50:15.572Z,5.33
2019-05-14T05:52:45.670Z,5.65
2019-05-14T05:55:14.692Z,6.50
2019-05-14T05:57:43.495Z,5.08
2019-05-14T06:00:13.537Z,6.37
2019-05-14T06:02:42.360Z,8.10
2019-05-14T06:05:11.202Z,3.70
2019-05-14T06:07:44.584Z,4.92
2019-05-14T06:10:13.597Z,3.52
2019-05-14T06:12:42.406Z,7.92
2019-05-14T06:15:14.410Z,7.83
2019-05-14T06:17:43.496Z,4.92
2019-05-14T06:20:12.472Z,4.10
2019-05-14T06:22:42.613Z,7.22
2019-05-14T06:25:11.995Z,2.62
2019-05-14T06:27:40.899Z,3.05
2019-05-14T06:30:11.245Z,8.20
2019-05-14T06:32:42.871Z,2.47
2019-05-14T06:35:11.966Z,2.65
2019-05-14T06:37:40.790Z,3.95
2019-05-14T06:40:10.429Z,5.85
2019-05-14T06:42:39.914Z,4.47
2019-05-14T06:45:09.119Z,2.98
2019-05-14T06:47:38.368Z,1.70
2019-05-14T06:50:08.493Z,4.72
2019-05-14T06:52:38.577Z,7.28
2019-05-14T06:55:08.909Z,5.85
2019-05-14T06:57:40.339Z,6.42
2019-05-14T07:00:09.830Z,4.22
2019-05-14T07:02:43.662Z,2.02
2019-05-14T07:05:10.098Z,6.60
2019-05-14T07:07:40.372Z,4.67
2019-05-14T07:10:11.390Z,2.35
2019-05-14T07:12:42.319Z,5.30
2019-05-14T07:15:15.203Z,8.08
2019-05-14T07:17:44.037Z,3.85
2019-05-14T07:20:13.701Z,6.53
2019-05-14T07:22:43.934Z,3.72
2019-05-14T07:25:13.244Z,1.95
2019-05-14T07:27:42.107Z,5.35
2019-05-14T07:30:12.786Z,4.53
2019-05-14T07:32:42.284Z,4.03
2019-05-14T07:35:13.803Z,5.85
2019-05-14T07:37:44.060Z,5.37
2019-05-14T07:40:15.144Z,6.97
2019-05-14T07:42:44.268Z,2.75
2019-05-14T07:45:14.194Z,3.65
2019-05-14T07:47:43.243Z,6.45
2019-05-14T07:50:14.734Z,2.17
2019-05-14T07:52:46.072Z,5.97
2019-05-14T07:55:18.522Z,5.10
2019-05-14T07:57:50.502Z,3.33
2019-05-14T08:00:21.264Z,1.85
2019-05-14T08:02:52.284Z,2.52
2019-05-14T08:05:21.558Z,4.85
2019-05-14T08:07:51.470Z,7.50
2019-05-14T08:10:21.819Z,3.40
2019-05-14T08:12:54.029Z,6.17
2019-05-14T08:15:25.157Z,6.15
2019-05-14T08:17:54.015Z,5.60
2019-05-14T08:20:28.657Z,7.12
2019-05-14T08:22:58.205Z,6.53
2019-05-14T08:25:32.741Z,7.55
2019-05-14T08:28:04.513Z,7.72
2019-05-14T08:30:33.453Z,6.33
2019-05-14T08:33:08.787Z,7.05
2019-05-14T08:35:35.299Z,4.90
2019-05-14T08:38:08.471Z,5.22
2019-05-14T08:40:38.262Z,4.97
2019-05-14T08:43:08.694Z,3.90
2019-05-14T08:45:38.904Z,5.58
2019-05-14T08:48:09.501Z,4.53
2019-05-14T08:50:38.785Z,8.80
2019-05-14T08:53:09.182Z,3.65
2019-05-14T08:55:38.288Z,2.80
2019-05-14T08:58:13.021Z,2.85
2019-05-14T09:00:41.123Z,5.35
2019-05-14T09:03:10.056Z,5.60
2019-05-14T09:05:38.899Z,4.67
2019-05-14T09:08:11.060Z,3.87
2019-05-14T09:10:40.499Z,2.95
2019-05-14T09:13:10.053Z,8.18
2019-05-14T09:15:39.835Z,4.85
2019-05-14T09:18:11.657Z,4.08
2019-05-14T09:20:41.089Z,3.00
2019-05-14T09:23:10.269Z,5.62
2019-05-14T09:25:47.825Z,7.95
2019-05-14T09:28:14.397Z,7.60
2019-05-14T09:30:45.748Z,3.60
2019-05-14T09:33:18.963Z,4.92
2019-05-14T09:35:49.294Z,5.95
2019-05-14T09:38:19.057Z,3.55
2019-05-14T09:40:49.038Z,3.45
2019-05-14T09:43:18.257Z,5.03
2019-05-14T09:45:48.159Z,5.53
2019-05-14T09:48:18.105Z,6.12
2019-05-14T09:50:48.893Z,4.35
2019-05-14T09:53:18.242Z,5.30
2019-05-14T09:55:49.237Z,3.65
2019-05-14T09:58:19.891Z,3.75
2019-05-14T10:00:48.866Z,5.97
2019-05-14T10:03:19.182Z,2.75
2019-05-14T10:05:50.134Z,5.75
2019-05-14T10:08:19.868Z,3.22
2019-05-14T10:10:48.977Z,3.05
2019-05-14T10:13:19.499Z,4.53
2019-05-14T10:15:48.665Z,5.00
2019-05-14T10:18:19.088Z,1.77
2019-05-14T10:20:49.307Z,3.37
2019-05-14T10:23:19.013Z,3.62
2019-05-14T10:25:48.100Z,2.80
2019-05-14T10:28:19.133Z,2.98
2019-05-14T10:30:49.595Z,3.02
2019-05-14T10:33:18.467Z,3.42
2019-05-14T10:35:48.505Z,4.83
2019-05-14T10:38:19.868Z,3.37
2019-05-14T10:40:51.653Z,6.15
2019-05-14T10:43:20.493Z,3.80
2019-05-14T10:45:49.805Z,2.70
2019-05-14T10:48:18.748Z,3.75
2019-05-14T10:50:58.925Z,1.32
2019-05-14T10:53:20.402Z,3.12
2019-05-14T10:55:49.469Z,3.45
2019-05-14T10:58:19.472Z,6.42
2019-05-14T11:00:49.517Z,4.60
2019-05-14T11:03:18.733Z,2.08
2019-05-14T11:05:48.220Z,5.62
2019-05-14T11:08:18.900Z,5.30
2019-05-14T11:10:49.772Z,2.52
2019-05-14T11:13:19.070Z,4.08
2019-05-14T11:15:48.616Z,4.72
2019-05-14T11:18:20.041Z,3.83
2019-05-14T11:20:51.429Z,2.90
2019-05-14T11:23:19.913Z,2.77
2019-05-14T11:25:50.207Z,1.72
2019-05-14T11:28:19.248Z,3.08
2019-05-14T11:30:49.397Z,4.22
2019-05-14T11:33:18.893Z,3.05
2019-05-14T11:35:48.786Z,3.70
2019-05-14T11:38:29.791Z,3.92
2019-05-14T11:40:49.681Z,3.20
2019-05-14T11:43:18.654Z,4.80
2019-05-14T11:45:48.466Z,3.47
2019-05-14T11:48:19.351Z,2.98
2019-05-14T11:50:49.116Z,4.22
2019-05-14T11:53:19.780Z,2.22
2019-05-14T11:55:50.323Z,3.50
2019-05-14T12:00:49.684Z,3.80
2019-05-14T12:03:19.712Z,4.03
2019-05-14T12:05:49.601Z,5.08
2019-05-14T12:08:19.186Z,3.90
2019-05-14T12:10:48.031Z,3.72
2019-05-14T12:13:19.243Z,6.12
2019-05-14T12:18:48.603Z,3.37
2019-05-14T12:21:17.468Z,4.33
2019-05-14T12:23:46.512Z,4.35
2019-05-14T12:26:18.908Z,2.70
2019-05-14T12:28:46.078Z,6.78
2019-05-14T12:31:15.025Z,4.20
2019-05-14T12:33:52.646Z,2.45
2019-05-14T12:36:29.301Z,9.90
2019-05-14T12:38:59.107Z,4.33
2019-05-14T12:41:29.211Z,2.58
2019-05-14T12:43:59.003Z,4.30
2019-05-14T12:46:29.440Z,6.47
2019-05-14T12:48:59.191Z,4.62
2019-05-14T12:51:31.520Z,2.62
2019-05-14T12:54:00.462Z,3.10
2019-05-14T12:56:29.527Z,3.33
2019-05-14T12:58:58.609Z,4.40
2019-05-14T13:01:49.670Z,6.17
2019-05-14T13:07:34.943Z,4.03
2019-05-14T13:10:12.570Z,4.35
2019-05-14T13:12:40.803Z,4.55
2019-05-14T13:15:10.971Z,4.10
2019-05-14T13:17:48.579Z,9.83
2019-05-14T13:20:21.321Z,3.65
2019-05-14T13:22:53.944Z,5.15
2019-05-14T13:25:47.482Z,4.20
2019-05-14T13:31:44.453Z,4.72
2019-05-14T13:37:20.984Z,4.67
2019-05-14T13:44:18.721Z,3.50
2019-05-14T13:46:53.804Z,7.50
2019-05-14T13:49:33.092Z,3.95
2019-05-14T13:52:15.484Z,3.83
2019-05-14T13:55:09.992Z,3.27
2019-05-14T14:04:32.920Z,8.05
2019-05-14T14:54:16.328Z,4.42
2019-05-14T14:56:45.387Z,10.43
2019-05-14T15:09:59.889Z,3.80
2019-05-14T15:12:29.248Z,7.00
2019-05-14T15:14:59.342Z,6.08
2019-05-14T15:17:29.462Z,5.33
2019-05-14T15:19:59.659Z,9.25
2019-05-14T15:22:30.988Z,5.95
2019-05-14T15:25:01.419Z,5.65
2019-05-14T15:27:30.197Z,6.40
2019-05-14T15:30:13.064Z,9.43
2019-05-14T15:32:40.462Z,6.15
2019-05-14T15:35:11.518Z,3.45
2019-05-14T15:37:42.865Z,4.62
2019-05-14T15:40:10.810Z,3.33
2019-05-14T15:42:40.729Z,3.12
2019-05-14T15:45:09.577Z,4.12
2019-05-14T15:47:39.808Z,7.17
2019-05-14T15:50:10.007Z,5.80
2019-05-14T15:52:40.212Z,4.40
2019-05-14T15:55:13.512Z,9.15
2019-05-14T15:57:42.212Z,5.25
2019-05-14T16:00:19.787Z,5.72
2019-05-14T16:02:50.446Z,8.38
2019-05-14T16:05:18.975Z,3.70
2019-05-14T16:07:49.452Z,4.72
2019-05-14T16:10:21.628Z,5.05
2019-05-14T16:12:49.906Z,7.10
2019-05-14T16:15:19.748Z,3.90
2019-05-14T16:18:05.697Z,2.45
2019-05-14T16:20:20.888Z,6.17
2019-05-14T16:22:50.618Z,4.20
2019-05-14T16:25:21.366Z,3.10
2019-05-14T16:27:50.137Z,3.80
2019-05-14T16:30:19.387Z,6.87
2019-05-14T16:32:49.154Z,4.40
2019-05-14T16:35:21.226Z,4.17
2019-05-14T16:37:48.960Z,2.30
2019-05-14T16:40:19.243Z,2.85
2019-05-14T16:42:50.183Z,5.00
2019-05-14T16:45:19.252Z,6.10
2019-05-14T16:47:52.353Z,5.33
2019-05-14T16:50:21.552Z,10.58
2019-05-14T16:53:02.743Z,3.67
2019-05-14T16:55:31.607Z,4.17
2019-05-14T16:58:00.711Z,4.33
2019-05-14T17:00:29.712Z,6.15
2019-05-14T17:03:00.661Z,3.47
2019-05-14T17:05:31.311Z,3.70
2019-05-14T17:08:01.385Z,2.95
2019-05-14T17:10:30.305Z,3.33
2019-05-14T17:13:05.452Z,2.02
2019-05-14T17:15:42.755Z,5.72
2019-05-14T17:18:11.758Z,2.37
2019-05-14T17:23:34.370Z,4.30
2019-05-14T17:29:43.525Z,4.28
2019-05-14T17:32:12.541Z,3.70
2019-05-14T17:34:42.913Z,7.05
2019-05-14T17:37:11.703Z,3.87
2019-05-14T17:39:40.601Z,3.22
2019-05-14T17:42:12.177Z,4.10
2019-05-14T17:44:42.534Z,5.85
2019-05-14T17:47:14.036Z,5.75
2019-05-14T17:49:43.032Z,2.15
2019-05-14T17:52:11.901Z,2.90
2019-05-14T17:54:42.002Z,3.45
2019-05-14T17:57:11.249Z,4.60
2019-05-14T17:59:40.095Z,9.60
2019-05-14T18:02:14.474Z,7.92
2019-05-14T18:04:43.431Z,6.77
2019-05-14T18:07:48.455Z,6.55
2019-05-14T18:10:19.479Z,2.58
2019-05-14T18:16:10.653Z,9.20
2019-05-14T19:25:30.963Z,4.97
2019-05-14T19:31:18.456Z,4.53
2019-05-14T19:37:26.369Z,3.50
2019-05-14T19:39:58.713Z,2.15
2019-05-14T19:45:56.252Z,2.90
2019-05-14T19:47:58.459Z,6.25
2019-05-14T19:50:29.368Z,2.83
2019-05-14T19:53:24.710Z,6.17
2019-05-14T19:55:53.753Z,2.65
2019-05-14T19:58:22.620Z,2.67
2019-05-14T20:01:09.990Z,3.60
2019-05-14T20:04:20.694Z,3.83
2019-05-14T20:06:49.750Z,5.70
2019-05-14T20:09:40.550Z,3.08
2019-05-14T20:12:09.733Z,3.58
2019-05-14T20:14:38.600Z,3.45
2019-05-14T20:17:08.940Z,4.78
2019-05-14T20:19:39.638Z,2.75
2019-05-14T20:22:08.670Z,5.17
2019-05-14T20:24:41.177Z,5.65
2019-05-14T20:27:11.951Z,3.17
2019-05-14T20:29:38.688Z,7.60
2019-05-14T20:35:11.860Z,3.72
2019-05-14T20:37:40.963Z,5.75
2019-05-14T20:40:10.168Z,4.22
2019-05-14T20:42:39.910Z,3.27
2019-05-14T20:45:09.935Z,4.08
2019-05-14T20:47:39.200Z,5.12
2019-05-14T20:50:11.790Z,3.80
2019-05-14T20:52:40.670Z,3.12
2019-05-14T20:55:09.753Z,4.30
2019-05-14T20:57:40.139Z,4.05
2019-05-14T21:00:11.605Z,2.65
2019-05-14T21:02:48.518Z,2.47
2019-05-14T21:05:31.567Z,4.15
2019-05-14T21:08:00.566Z,4.53
2019-05-14T21:10:38.270Z,9.03
2019-05-14T21:13:01.797Z,7.05
2019-05-14T21:15:30.757Z,6.47
2019-05-14T21:18:02.778Z,5.95
2019-05-14T21:20:31.861Z,9.25
2019-05-14T21:23:14.705Z,13.72
2019-05-14T21:25:45.503Z,12.15
2019-05-14T21:28:14.178Z,9.08
2019-05-14T21:30:43.433Z,12.05
2019-05-14T21:33:13.354Z,19.87
2019-05-14T21:35:43.421Z,13.78
2019-05-14T21:38:13.090Z,18.35
2019-05-14T21:40:41.901Z,12.23
2019-05-14T21:43:34.731Z,13.68
2019-05-14T21:46:04.630Z,18.67
2019-05-14T21:48:33.449Z,15.90
2019-05-14T21:51:03.732Z,14.18
2019-05-14T21:53:32.750Z,23.18
2019-05-14T21:56:01.611Z,23.95
2019-05-14T21:58:31.248Z,19.27
2019-05-14T22:01:01.926Z,18.92
2019-05-14T22:03:32.103Z,17.57
2019-05-14T22:06:00.933Z,16.52
2019-05-14T22:08:31.677Z,10.88
2019-05-14T22:11:01.383Z,17.75
2019-05-14T22:13:31.246Z,12.37
2019-05-14T22:16:00.032Z,15.48
2019-05-14T22:18:30.000Z,10.43
2019-05-14T22:20:58.921Z,6.90
2019-05-14T22:23:29.593Z,5.97
2019-05-14T22:25:59.336Z,12.55
2019-05-14T22:28:29.951Z,8.35
2019-05-14T22:30:58.812Z,10.32
2019-05-14T22:33:29.521Z,7.87
2019-05-14T22:35:58.356Z,8.20
2019-05-14T22:38:32.114Z,6.53
2019-05-14T22:41:02.319Z,10.08
2019-05-14T22:43:31.131Z,7.33
2019-05-14T22:46:08.324Z,5.87
2019-05-14T22:51:08.607Z,6.00
2019-05-14T22:53:42.181Z,7.35
2019-05-14T22:56:11.463Z,4.22
2019-05-14T22:58:41.889Z,6.00
2019-05-14T23:01:18.421Z,6.05
2019-05-14T23:03:48.983Z,8.78
2019-05-14T23:06:19.166Z,3.98
2019-05-14T23:08:49.923Z,9.45
2019-05-14T23:11:19.761Z,5.05
2019-05-14T23:13:49.054Z,8.10
2019-05-14T23:16:32.747Z,6.65
2019-05-14T23:18:52.627Z,4.35
2019-05-14T23:21:21.519Z,6.70
2019-05-14T23:23:52.224Z,10.70
2019-05-14T23:26:20.707Z,3.80
2019-05-14T23:28:49.514Z,8.93
2019-05-14T23:31:18.844Z,7.42
2019-05-14T23:33:48.964Z,4.83
2019-05-14T23:36:18.362Z,3.70
2019-05-14T23:38:49.277Z,8.90
2019-05-14T23:41:18.162Z,3.83
2019-05-14T23:43:47.684Z,7.15
2019-05-14T23:46:18.470Z,3.90
2019-05-14T23:48:48.650Z,5.25
2019-05-14T23:51:18.550Z,5.25
2019-05-14T23:53:48.683Z,5.83
